sensor_id;sensor_type;location;lat;lon;timestamp;pressure;altitude;pressure_sealevel;temperature;humidity
66762;BME280;53672;48.176;16.338;2023-04-04T00:01:26;99779.34;;;0.65;49.30
66762;BME280;53672;48.176;16.338;2023-04-04T00:06:28;99775.63;;;0.59;49.31
66762;BME280;53672;48.176;16.338;2023-04-04T00:11:28;99783.78;;;0.51;49.74
66762;BME280;53672;48.176;16.338;2023-04-04T00:16:29;99782.13;;;0.50;49.21
66762;BME280;53672;48.176;16.338;2023-04-04T00:21:31;99777.25;;;0.54;48.62
66762;BME280;53672;48.176;16.338;2023-04-04T00:26:31;99781.69;;;0.40;49.12
66762;BME280;53672;48.176;16.338;2023-04-04T00:31:32;99779.06;;;0.40;48.77
66762;BME280;53672;48.176;16.338;2023-04-04T00:36:34;99778.81;;;0.35;49.19
66762;BME280;53672;48.176;16.338;2023-04-04T00:41:35;99780.00;;;0.26;50.10
66762;BME280;53672;48.176;16.338;2023-04-04T00:46:35;99779.44;;;0.37;50.24
66762;BME280;53672;48.176;16.338;2023-04-04T00:51:37;99776.34;;;0.27;51.54
66762;BME280;53672;48.176;16.338;2023-04-04T00:56:38;99781.81;;;0.19;51.42
66762;BME280;53672;48.176;16.338;2023-04-04T01:01:39;99786.47;;;0.10;52.55
66762;BME280;53672;48.176;16.338;2023-04-04T01:06:41;99785.31;;;0.26;52.33
66762;BME280;53672;48.176;16.338;2023-04-04T01:11:43;99787.13;;;0.25;52.21
66762;BME280;53672;48.176;16.338;2023-04-04T01:16:44;99794.28;;;0.25;51.51
66762;BME280;53672;48.176;16.338;2023-04-04T01:21:46;99788.34;;;0.16;52.38
66762;BME280;53672;48.176;16.338;2023-04-04T01:26:50;99787.66;;;0.08;52.67
66762;BME280;53672;48.176;16.338;2023-04-04T01:31:56;99790.09;;;0.03;52.65
66762;BME280;53672;48.176;16.338;2023-04-04T01:37:02;99780.50;;;0.02;52.33
66762;BME280;53672;48.176;16.338;2023-04-04T01:42:04;99786.25;;;0.05;52.05
66762;BME280;53672;48.176;16.338;2023-04-04T01:47:05;99791.81;;;0.17;52.01
66762;BME280;53672;48.176;16.338;2023-04-04T01:52:06;99784.72;;;0.24;52.04
66762;BME280;53672;48.176;16.338;2023-04-04T01:57:07;99787.00;;;0.40;51.05
66762;BME280;53672;48.176;16.338;2023-04-04T02:02:08;99782.56;;;0.54;50.92
66762;BME280;53672;48.176;16.338;2023-04-04T02:07:09;99777.47;;;0.65;50.63
66762;BME280;53672;48.176;16.338;2023-04-04T02:12:11;99781.16;;;0.64;50.73
66762;BME280;53672;48.176;16.338;2023-04-04T02:17:12;99769.09;;;0.55;50.60
66762;BME280;53672;48.176;16.338;2023-04-04T02:22:12;99768.25;;;0.48;51.05
66762;BME280;53672;48.176;16.338;2023-04-04T02:27:14;99760.91;;;0.43;51.02
66762;BME280;53672;48.176;16.338;2023-04-04T02:32:14;99764.94;;;0.26;51.19
66762;BME280;53672;48.176;16.338;2023-04-04T02:37:15;99762.66;;;0.17;51.93
66762;BME280;53672;48.176;16.338;2023-04-04T02:42:17;99760.56;;;0.06;52.27
66762;BME280;53672;48.176;16.338;2023-04-04T02:47:17;99772.13;;;-0.02;52.68
66762;BME280;53672;48.176;16.338;2023-04-04T02:52:19;99768.22;;;-0.13;53.09
66762;BME280;53672;48.176;16.338;2023-04-04T02:57:21;99778.78;;;-0.19;53.73
66762;BME280;53672;48.176;16.338;2023-04-04T03:02:22;99767.13;;;-0.25;54.21
66762;BME280;53672;48.176;16.338;2023-04-04T03:07:23;99760.16;;;-0.32;54.42
66762;BME280;53672;48.176;16.338;2023-04-04T03:12:25;99760.56;;;-0.35;54.81
66762;BME280;53672;48.176;16.338;2023-04-04T03:17:25;99744.44;;;-0.34;55.08
66762;BME280;53672;48.176;16.338;2023-04-04T03:22:26;99740.75;;;-0.39;55.35
66762;BME280;53672;48.176;16.338;2023-04-04T03:27:29;99725.28;;;-0.42;55.57
66762;BME280;53672;48.176;16.338;2023-04-04T03:32:30;99723.81;;;-0.52;55.68
66762;BME280;53672;48.176;16.338;2023-04-04T03:37:30;99718.69;;;-0.53;55.88
66762;BME280;53672;48.176;16.338;2023-04-04T03:42:33;99726.19;;;-0.57;56.06
66762;BME280;53672;48.176;16.338;2023-04-04T03:47:34;99716.56;;;-0.64;56.32
66762;BME280;53672;48.176;16.338;2023-04-04T03:52:36;99719.22;;;-0.64;55.97
66762;BME280;53672;48.176;16.338;2023-04-04T03:57:38;99721.09;;;-0.58;56.15
66762;BME280;53672;48.176;16.338;2023-04-04T04:02:39;99718.44;;;-0.58;55.65
66762;BME280;53672;48.176;16.338;2023-04-04T04:07:42;99703.72;;;-0.67;56.39
66762;BME280;53672;48.176;16.338;2023-04-04T04:12:44;99717.97;;;-0.68;55.59
66762;BME280;53672;48.176;16.338;2023-04-04T04:17:44;99705.94;;;-0.71;56.21
66762;BME280;53672;48.176;16.338;2023-04-04T04:22:45;99701.91;;;-0.67;56.05
66762;BME280;53672;48.176;16.338;2023-04-04T04:27:47;99709.69;;;-0.59;55.63
66762;BME280;53672;48.176;16.338;2023-04-04T04:32:48;99705.56;;;-0.68;55.79
66762;BME280;53672;48.176;16.338;2023-04-04T04:37:48;99711.91;;;-0.62;55.08
66762;BME280;53672;48.176;16.338;2023-04-04T04:42:50;99723.16;;;-0.54;54.69
66762;BME280;53672;48.176;16.338;2023-04-04T04:47:50;99724.81;;;-0.53;54.68
66762;BME280;53672;48.176;16.338;2023-04-04T04:52:51;99734.44;;;-0.45;54.60
66762;BME280;53672;48.176;16.338;2023-04-04T04:57:53;99737.31;;;-0.33;53.70
66762;BME280;53672;48.176;16.338;2023-04-04T05:02:53;99741.03;;;-0.28;54.09
66762;BME280;53672;48.176;16.338;2023-04-04T05:07:54;99745.00;;;-0.11;53.50
66762;BME280;53672;48.176;16.338;2023-04-04T05:12:56;99738.56;;;0.12;52.00
66762;BME280;53672;48.176;16.338;2023-04-04T05:17:57;99750.72;;;0.40;50.62
66762;BME280;53672;48.176;16.338;2023-04-04T05:22:57;99761.38;;;0.60;50.07
66762;BME280;53672;48.176;16.338;2023-04-04T05:27:59;99761.22;;;0.81;48.97
66762;BME280;53672;48.176;16.338;2023-04-04T05:32:59;99751.00;;;1.18;47.85
66762;BME280;53672;48.176;16.338;2023-04-04T05:38:00;99758.78;;;1.39;46.73
66762;BME280;53672;48.176;16.338;2023-04-04T05:43:02;99765.50;;;1.68;46.65
66762;BME280;53672;48.176;16.338;2023-04-04T05:48:02;99774.00;;;1.96;46.40
66762;BME280;53672;48.176;16.338;2023-04-04T05:53:03;99758.22;;;2.52;44.34
66762;BME280;53672;48.176;16.338;2023-04-04T05:58:05;99778.53;;;2.78;43.43
66762;BME280;53672;48.176;16.338;2023-04-04T06:03:05;99785.84;;;3.45;42.13
66762;BME280;53672;48.176;16.338;2023-04-04T06:08:06;99776.66;;;3.84;41.39
66762;BME280;53672;48.176;16.338;2023-04-04T06:13:07;99795.06;;;4.10;41.15
66762;BME280;53672;48.176;16.338;2023-04-04T06:18:08;99796.47;;;4.31;40.19
66762;BME280;53672;48.176;16.338;2023-04-04T06:23:08;99798.44;;;4.53;40.32
66762;BME280;53672;48.176;16.338;2023-04-04T06:28:10;99790.78;;;4.87;38.74
66762;BME280;53672;48.176;16.338;2023-04-04T06:33:11;99789.34;;;5.02;38.58
66762;BME280;53672;48.176;16.338;2023-04-04T06:38:11;99784.69;;;5.51;37.83
66762;BME280;53672;48.176;16.338;2023-04-04T06:43:13;99784.34;;;5.59;37.38
66762;BME280;53672;48.176;16.338;2023-04-04T06:48:14;99794.38;;;5.98;36.24
66762;BME280;53672;48.176;16.338;2023-04-04T06:53:14;99777.59;;;5.68;36.75
66762;BME280;53672;48.176;16.338;2023-04-04T06:58:16;99785.25;;;5.53;37.28
66762;BME280;53672;48.176;16.338;2023-04-04T07:03:16;99784.78;;;5.33;37.94
66762;BME280;53672;48.176;16.338;2023-04-04T07:08:17;99783.59;;;5.17;38.04
66762;BME280;53672;48.176;16.338;2023-04-04T07:13:19;99788.69;;;5.19;37.95
66762;BME280;53672;48.176;16.338;2023-04-04T07:18:19;99770.03;;;5.30;37.35
66762;BME280;53672;48.176;16.338;2023-04-04T07:23:20;99771.91;;;5.65;37.15
66762;BME280;53672;48.176;16.338;2023-04-04T07:28:22;99777.47;;;6.21;36.29
66762;BME280;53672;48.176;16.338;2023-04-04T07:33:22;99776.06;;;6.19;35.73
66762;BME280;53672;48.176;16.338;2023-04-04T07:38:23;99775.94;;;6.13;35.35
66762;BME280;53672;48.176;16.338;2023-04-04T07:43:25;99776.16;;;6.24;35.87
66762;BME280;53672;48.176;16.338;2023-04-04T07:48:25;99776.50;;;6.27;35.32
66762;BME280;53672;48.176;16.338;2023-04-04T07:53:26;99778.06;;;6.11;35.61
66762;BME280;53672;48.176;16.338;2023-04-04T07:58:27;99783.97;;;6.65;34.40
66762;BME280;53672;48.176;16.338;2023-04-04T08:03:28;99786.63;;;7.22;33.62
66762;BME280;53672;48.176;16.338;2023-04-04T08:08:29;99780.19;;;7.73;33.17
66762;BME280;53672;48.176;16.338;2023-04-04T08:13:31;99775.59;;;8.06;31.59
66762;BME280;53672;48.176;16.338;2023-04-04T08:18:31;99767.44;;;8.18;32.12
66762;BME280;53672;48.176;16.338;2023-04-04T08:23:32;99791.50;;;8.73;31.10
66762;BME280;53672;48.176;16.338;2023-04-04T08:28:33;99777.78;;;10.02;29.98
66762;BME280;53672;48.176;16.338;2023-04-04T08:33:34;99774.13;;;10.90;27.77
66762;BME280;53672;48.176;16.338;2023-04-04T08:38:34;99771.19;;;10.25;27.82
66762;BME280;53672;48.176;16.338;2023-04-04T08:43:38;99773.09;;;11.97;25.89
66762;BME280;53672;48.176;16.338;2023-04-04T08:48:40;99774.53;;;15.13;21.88
66762;BME280;53672;48.176;16.338;2023-04-04T08:53:42;99776.13;;;15.14;22.00
66762;BME280;53672;48.176;16.338;2023-04-04T08:58:44;99749.50;;;14.97;21.26
66762;BME280;53672;48.176;16.338;2023-04-04T09:03:45;99750.59;;;13.59;22.92
66762;BME280;53672;48.176;16.338;2023-04-04T09:08:46;99739.72;;;13.88;23.17
66762;BME280;53672;48.176;16.338;2023-04-04T09:13:49;99743.69;;;18.24;18.85
66762;BME280;53672;48.176;16.338;2023-04-04T09:18:50;99729.91;;;20.01;16.55
66762;BME280;53672;48.176;16.338;2023-04-04T09:23:57;99737.94;;;19.34;17.17
66762;BME280;53672;48.176;16.338;2023-04-04T09:28:59;99725.06;;;15.67;18.88
66762;BME280;53672;48.176;16.338;2023-04-04T09:34:00;99729.84;;;16.30;19.74
66762;BME280;53672;48.176;16.338;2023-04-04T09:39:02;99726.16;;;13.35;22.14
66762;BME280;53672;48.176;16.338;2023-04-04T09:44:04;99735.75;;;20.88;16.06
66762;BME280;53672;48.176;16.338;2023-04-04T09:49:08;99727.81;;;20.65;15.62
66762;BME280;53672;48.176;16.338;2023-04-04T09:54:09;99727.59;;;21.20;15.05
66762;BME280;53672;48.176;16.338;2023-04-04T09:59:11;99712.59;;;24.54;12.67
66762;BME280;53672;48.176;16.338;2023-04-04T10:04:12;99711.88;;;23.08;13.48
66762;BME280;53672;48.176;16.338;2023-04-04T10:09:14;99708.34;;;23.07;14.14
66762;BME280;53672;48.176;16.338;2023-04-04T10:14:16;99693.28;;;20.94;14.96
66762;BME280;53672;48.176;16.338;2023-04-04T10:19:17;99719.44;;;21.33;14.75
66762;BME280;53672;48.176;16.338;2023-04-04T10:24:18;99713.47;;;18.52;17.26
66762;BME280;53672;48.176;16.338;2023-04-04T10:29:20;99706.00;;;20.78;15.23
66762;BME280;53672;48.176;16.338;2023-04-04T10:34:24;99688.88;;;21.22;13.98
66762;BME280;53672;48.176;16.338;2023-04-04T10:39:32;99695.63;;;21.24;14.63
66762;BME280;53672;48.176;16.338;2023-04-04T10:44:38;99667.31;;;17.85;17.32
66762;BME280;53672;48.176;16.338;2023-04-04T10:49:39;99676.31;;;19.37;17.54
66762;BME280;53672;48.176;16.338;2023-04-04T10:54:40;99674.41;;;24.06;13.13
66762;BME280;53672;48.176;16.338;2023-04-04T11:00:00;99676.97;;;20.97;15.22
66762;BME280;53672;48.176;16.338;2023-04-04T11:05:09;99676.63;;;21.40;15.04
66762;BME280;53672;48.176;16.338;2023-04-04T11:10:13;99675.47;;;24.01;13.33
66762;BME280;53672;48.176;16.338;2023-04-04T11:15:20;99656.22;;;22.47;13.70
66762;BME280;53672;48.176;16.338;2023-04-04T11:20:22;99656.41;;;20.70;15.62
66762;BME280;53672;48.176;16.338;2023-04-04T11:25:30;99643.31;;;25.10;12.38
66762;BME280;53672;48.176;16.338;2023-04-04T11:30:37;99645.28;;;22.87;13.69
66762;BME280;53672;48.176;16.338;2023-04-04T11:35:38;99623.91;;;22.68;14.12
66762;BME280;53672;48.176;16.338;2023-04-04T11:40:40;99616.09;;;23.69;13.01
66762;BME280;53672;48.176;16.338;2023-04-04T11:45:46;99601.63;;;25.57;11.45
66762;BME280;53672;48.176;16.338;2023-04-04T11:50:47;99597.28;;;24.76;11.75
66762;BME280;53672;48.176;16.338;2023-04-04T11:55:48;99588.06;;;22.12;13.16
66762;BME280;53672;48.176;16.338;2023-04-04T12:00:50;99570.34;;;19.51;14.71
66762;BME280;53672;48.176;16.338;2023-04-04T12:05:51;99566.69;;;20.47;15.33
66762;BME280;53672;48.176;16.338;2023-04-04T12:10:52;99557.84;;;19.70;15.88
66762;BME280;53672;48.176;16.338;2023-04-04T12:15:54;99539.09;;;17.68;17.94
66762;BME280;53672;48.176;16.338;2023-04-04T12:20:55;99547.66;;;16.02;18.55
66762;BME280;53672;48.176;16.338;2023-04-04T12:25:56;99539.22;;;15.36;19.94
66762;BME280;53672;48.176;16.338;2023-04-04T12:30:58;99516.94;;;14.28;20.95
66762;BME280;53672;48.176;16.338;2023-04-04T12:35:59;99516.28;;;13.99;20.81
66762;BME280;53672;48.176;16.338;2023-04-04T12:41:01;99513.16;;;13.73;21.58
66762;BME280;53672;48.176;16.338;2023-04-04T12:46:06;99507.28;;;13.18;22.28
66762;BME280;53672;48.176;16.338;2023-04-04T12:51:09;99511.03;;;13.23;22.28
66762;BME280;53672;48.176;16.338;2023-04-04T12:56:09;99500.47;;;12.40;22.66
66762;BME280;53672;48.176;16.338;2023-04-04T13:01:11;99500.63;;;12.53;23.10
66762;BME280;53672;48.176;16.338;2023-04-04T13:06:13;99491.56;;;12.68;22.86
66762;BME280;53672;48.176;16.338;2023-04-04T13:11:14;99493.00;;;12.27;23.06
66762;BME280;53672;48.176;16.338;2023-04-04T13:16:29;99498.63;;;11.96;23.36
66762;BME280;53672;48.176;16.338;2023-04-04T13:21:30;99495.38;;;11.45;24.12
66762;BME280;53672;48.176;16.338;2023-04-04T13:26:31;99482.06;;;11.59;23.60
66762;BME280;53672;48.176;16.338;2023-04-04T13:31:33;99475.22;;;11.23;24.65
66762;BME280;53672;48.176;16.338;2023-04-04T13:36:33;99498.19;;;11.15;24.62
66762;BME280;53672;48.176;16.338;2023-04-04T13:41:34;99488.25;;;11.00;24.64
66762;BME280;53672;48.176;16.338;2023-04-04T13:46:36;99476.47;;;10.61;25.02
66762;BME280;53672;48.176;16.338;2023-04-04T13:51:36;99479.16;;;10.56;25.44
66762;BME280;53672;48.176;16.338;2023-04-04T13:56:37;99461.09;;;9.96;25.80
66762;BME280;53672;48.176;16.338;2023-04-04T14:01:39;99482.78;;;9.49;26.34
66762;BME280;53672;48.176;16.338;2023-04-04T14:06:39;99485.53;;;9.64;26.33
66762;BME280;53672;48.176;16.338;2023-04-04T14:11:40;99492.44;;;9.35;26.59
66762;BME280;53672;48.176;16.338;2023-04-04T14:16:42;99485.34;;;9.13;27.14
66762;BME280;53672;48.176;16.338;2023-04-04T14:21:42;99486.28;;;8.87;28.16
66762;BME280;53672;48.176;16.338;2023-04-04T14:26:42;99497.84;;;8.88;27.53
66762;BME280;53672;48.176;16.338;2023-04-04T14:31:44;99506.78;;;8.56;28.09
66762;BME280;53672;48.176;16.338;2023-04-04T14:36:45;99487.91;;;8.46;27.99
66762;BME280;53672;48.176;16.338;2023-04-04T14:41:45;99500.03;;;8.22;28.64
66762;BME280;53672;48.176;16.338;2023-04-04T14:46:49;99488.91;;;8.35;28.24
66762;BME280;53672;48.176;16.338;2023-04-04T14:51:50;99504.25;;;8.13;28.87
66762;BME280;53672;48.176;16.338;2023-04-04T14:56:50;99501.97;;;8.00;28.72
66762;BME280;53672;48.176;16.338;2023-04-04T15:01:52;99521.28;;;7.70;28.66
66762;BME280;53672;48.176;16.338;2023-04-04T15:06:52;99502.94;;;7.40;30.16
66762;BME280;53672;48.176;16.338;2023-04-04T15:11:53;99510.31;;;7.50;30.30
66762;BME280;53672;48.176;16.338;2023-04-04T15:16:55;99508.88;;;7.42;30.29
66762;BME280;53672;48.176;16.338;2023-04-04T15:21:55;99508.31;;;7.40;30.96
66762;BME280;53672;48.176;16.338;2023-04-04T15:26:56;99504.66;;;7.25;30.71
66762;BME280;53672;48.176;16.338;2023-04-04T15:31:58;99513.06;;;7.11;31.01
66762;BME280;53672;48.176;16.338;2023-04-04T15:36:58;99505.53;;;7.08;30.76
66762;BME280;53672;48.176;16.338;2023-04-04T15:41:58;99515.34;;;7.03;31.18
66762;BME280;53672;48.176;16.338;2023-04-04T15:47:00;99516.34;;;6.97;30.84
66762;BME280;53672;48.176;16.338;2023-04-04T15:52:01;99526.03;;;6.64;30.90
66762;BME280;53672;48.176;16.338;2023-04-04T15:57:02;99523.69;;;6.51;31.61
66762;BME280;53672;48.176;16.338;2023-04-04T16:02:04;99522.66;;;6.36;31.84
66762;BME280;53672;48.176;16.338;2023-04-04T16:07:05;99527.25;;;6.24;32.08
66762;BME280;53672;48.176;16.338;2023-04-04T16:12:06;99534.44;;;6.06;32.14
66762;BME280;53672;48.176;16.338;2023-04-04T16:17:07;99534.38;;;6.01;32.69
66762;BME280;53672;48.176;16.338;2023-04-04T16:22:08;99536.88;;;5.91;33.25
66762;BME280;53672;48.176;16.338;2023-04-04T16:27:08;99534.81;;;5.82;33.44
66762;BME280;53672;48.176;16.338;2023-04-04T16:32:10;99541.22;;;5.69;32.90
66762;BME280;53672;48.176;16.338;2023-04-04T16:37:11;99550.47;;;5.50;33.52
66762;BME280;53672;48.176;16.338;2023-04-04T16:42:11;99546.22;;;5.37;34.06
66762;BME280;53672;48.176;16.338;2023-04-04T16:47:13;99548.44;;;5.29;34.29
66762;BME280;53672;48.176;16.338;2023-04-04T16:52:14;99539.41;;;5.18;34.32
66762;BME280;53672;48.176;16.338;2023-04-04T16:57:14;99551.72;;;5.07;33.95
66762;BME280;53672;48.176;16.338;2023-04-04T17:02:16;99545.47;;;4.90;34.50
66762;BME280;53672;48.176;16.338;2023-04-04T17:07:17;99549.53;;;4.81;34.62
66762;BME280;53672;48.176;16.338;2023-04-04T17:12:18;99549.53;;;4.70;35.50
66762;BME280;53672;48.176;16.338;2023-04-04T17:17:20;99559.16;;;4.59;35.78
66762;BME280;53672;48.176;16.338;2023-04-04T17:22:20;99553.91;;;4.52;36.36
66762;BME280;53672;48.176;16.338;2023-04-04T17:27:21;99561.94;;;4.41;36.87
66762;BME280;53672;48.176;16.338;2023-04-04T17:32:22;99564.91;;;4.33;37.14
66762;BME280;53672;48.176;16.338;2023-04-04T17:37:23;99569.66;;;4.19;38.15
66762;BME280;53672;48.176;16.338;2023-04-04T17:42:23;99582.16;;;4.07;38.64
66762;BME280;53672;48.176;16.338;2023-04-04T17:47:25;99593.44;;;3.91;39.18
66762;BME280;53672;48.176;16.338;2023-04-04T17:52:26;99594.94;;;3.87;38.87
66762;BME280;53672;48.176;16.338;2023-04-04T17:57:26;99607.47;;;3.68;39.03
66762;BME280;53672;48.176;16.338;2023-04-04T18:02:28;99613.00;;;3.67;39.02
66762;BME280;53672;48.176;16.338;2023-04-04T18:07:29;99627.47;;;3.59;39.33
66762;BME280;53672;48.176;16.338;2023-04-04T18:12:30;99621.84;;;3.49;39.67
66762;BME280;53672;48.176;16.338;2023-04-04T18:17:32;99633.81;;;3.40;40.11
66762;BME280;53672;48.176;16.338;2023-04-04T18:22:33;99648.25;;;3.32;39.86
66762;BME280;53672;48.176;16.338;2023-04-04T18:27:33;99657.34;;;3.25;40.12
66762;BME280;53672;48.176;16.338;2023-04-04T18:32:35;99656.59;;;3.18;40.99
66762;BME280;53672;48.176;16.338;2023-04-04T18:37:36;99661.19;;;3.11;40.98
66762;BME280;53672;48.176;16.338;2023-04-04T18:42:38;99664.94;;;3.03;41.60
66762;BME280;53672;48.176;16.338;2023-04-04T18:47:40;99670.88;;;2.98;41.66
66762;BME280;53672;48.176;16.338;2023-04-04T18:52:41;99673.22;;;2.88;41.96
66762;BME280;53672;48.176;16.338;2023-04-04T18:57:41;99681.06;;;2.83;42.45
66762;BME280;53672;48.176;16.338;2023-04-04T19:02:43;99691.38;;;2.73;42.32
66762;BME280;53672;48.176;16.338;2023-04-04T19:07:46;99687.31;;;2.64;42.55
66762;BME280;53672;48.176;16.338;2023-04-04T19:12:47;99695.41;;;2.51;42.62
66762;BME280;53672;48.176;16.338;2023-04-04T19:17:49;99700.59;;;2.39;42.43
66762;BME280;53672;48.176;16.338;2023-04-04T19:22:51;99684.88;;;2.31;42.28
66762;BME280;53672;48.176;16.338;2023-04-04T19:27:53;99703.16;;;2.21;42.64
66762;BME280;53672;48.176;16.338;2023-04-04T19:32:55;99707.72;;;2.08;43.03
66762;BME280;53672;48.176;16.338;2023-04-04T19:37:55;99706.56;;;1.90;43.63
66762;BME280;53672;48.176;16.338;2023-04-04T19:42:56;99709.81;;;1.92;43.79
66762;BME280;53672;48.176;16.338;2023-04-04T19:47:59;99717.66;;;1.68;44.66
66762;BME280;53672;48.176;16.338;2023-04-04T19:53:03;99726.25;;;1.70;44.67
66762;BME280;53672;48.176;16.338;2023-04-04T19:58:04;99736.25;;;1.61;46.27
66762;BME280;53672;48.176;16.338;2023-04-04T20:03:06;99743.44;;;1.54;47.87
66762;BME280;53672;48.176;16.338;2023-04-04T20:08:07;99732.41;;;1.31;48.63
66762;BME280;53672;48.176;16.338;2023-04-04T20:13:08;99742.63;;;1.21;48.96
66762;BME280;53672;48.176;16.338;2023-04-04T20:18:19;99745.94;;;1.10;49.70
66762;BME280;53672;48.176;16.338;2023-04-04T20:23:19;99756.50;;;0.96;50.08
66762;BME280;53672;48.176;16.338;2023-04-04T20:28:24;99764.88;;;0.93;50.16
66762;BME280;53672;48.176;16.338;2023-04-04T20:33:33;99764.47;;;0.83;50.06
66762;BME280;53672;48.176;16.338;2023-04-04T20:38:35;99766.69;;;0.67;50.90
66762;BME280;53672;48.176;16.338;2023-04-04T20:43:36;99761.38;;;0.60;50.75
66762;BME280;53672;48.176;16.338;2023-04-04T20:48:39;99769.50;;;0.52;50.82
66762;BME280;53672;48.176;16.338;2023-04-04T20:53:39;99772.75;;;0.47;51.19
66762;BME280;53672;48.176;16.338;2023-04-04T20:58:40;99778.84;;;0.41;51.05
66762;BME280;53672;48.176;16.338;2023-04-04T21:03:42;99782.47;;;0.27;51.68
66762;BME280;53672;48.176;16.338;2023-04-04T21:08:44;99781.41;;;0.22;51.71
66762;BME280;53672;48.176;16.338;2023-04-04T21:13:45;99789.34;;;0.15;51.63
66762;BME280;53672;48.176;16.338;2023-04-04T21:18:47;99782.63;;;0.13;51.58
66762;BME280;53672;48.176;16.338;2023-04-04T21:23:49;99780.56;;;0.15;51.08
66762;BME280;53672;48.176;16.338;2023-04-04T21:28:50;99770.38;;;0.12;51.24
66762;BME280;53672;48.176;16.338;2023-04-04T21:33:54;99773.34;;;-0.05;51.23
66762;BME280;53672;48.176;16.338;2023-04-04T21:38:56;99779.66;;;-0.06;51.66
66762;BME280;53672;48.176;16.338;2023-04-04T21:43:58;99782.25;;;-0.19;52.49
66762;BME280;53672;48.176;16.338;2023-04-04T21:49:00;99769.78;;;-0.25;52.37
66762;BME280;53672;48.176;16.338;2023-04-04T21:54:01;99765.19;;;-0.37;52.76
66762;BME280;53672;48.176;16.338;2023-04-04T21:59:03;99771.28;;;-0.43;53.68
66762;BME280;53672;48.176;16.338;2023-04-04T22:04:05;99762.03;;;-0.54;54.25
66762;BME280;53672;48.176;16.338;2023-04-04T22:09:06;99767.34;;;-0.54;54.23
66762;BME280;53672;48.176;16.338;2023-04-04T22:14:06;99756.47;;;-0.66;55.54
66762;BME280;53672;48.176;16.338;2023-04-04T22:19:08;99764.50;;;-0.80;56.04
66762;BME280;53672;48.176;16.338;2023-04-04T22:24:09;99762.19;;;-0.90;56.19
66762;BME280;53672;48.176;16.338;2023-04-04T22:29:09;99760.16;;;-0.88;56.03
66762;BME280;53672;48.176;16.338;2023-04-04T22:34:11;99761.75;;;-0.93;56.17
66762;BME280;53672;48.176;16.338;2023-04-04T22:39:11;99763.31;;;-0.99;56.24
66762;BME280;53672;48.176;16.338;2023-04-04T22:44:12;99759.78;;;-1.06;56.74
66762;BME280;53672;48.176;16.338;2023-04-04T22:49:14;99760.56;;;-1.12;56.63
66762;BME280;53672;48.176;16.338;2023-04-04T22:54:15;99776.63;;;-1.14;56.83
66762;BME280;53672;48.176;16.338;2023-04-04T22:59:15;99763.03;;;-1.11;56.51
66762;BME280;53672;48.176;16.338;2023-04-04T23:04:17;99760.31;;;-1.17;56.80
66762;BME280;53672;48.176;16.338;2023-04-04T23:09:18;99762.31;;;-1.19;56.81
66762;BME280;53672;48.176;16.338;2023-04-04T23:14:18;99760.06;;;-1.22;56.81
66762;BME280;53672;48.176;16.338;2023-04-04T23:19:20;99756.41;;;-1.21;56.88
66762;BME280;53672;48.176;16.338;2023-04-04T23:24:21;99751.81;;;-1.13;57.09
66762;BME280;53672;48.176;16.338;2023-04-04T23:29:21;99753.44;;;-1.12;56.73
66762;BME280;53672;48.176;16.338;2023-04-04T23:34:23;99746.50;;;-1.13;56.87
66762;BME280;53672;48.176;16.338;2023-04-04T23:39:23;99744.69;;;-1.12;56.87
66762;BME280;53672;48.176;16.338;2023-04-04T23:44:24;99734.44;;;-1.22;56.97
66762;BME280;53672;48.176;16.338;2023-04-04T23:49:26;99732.13;;;-1.31;57.40
66762;BME280;53672;48.176;16.338;2023-04-04T23:54:26;99733.66;;;-1.37;57.90
66762;BME280;53672;48.176;16.338;2023-04-04T23:59:27;99731.56;;;-1.48;58.44
